sensor_id;sensor_type;location;lat;lon;timestamp;P1;durP1;ratioP1;P2;durP2;ratioP2
36211;SDS011;22247;48.586;13.492;2022-12-20T00:01:19;41.67;;;17.20;;
36211;SDS011;22247;48.586;13.492;2022-12-20T00:03:48;31.33;;;15.00;;
36211;SDS011;22247;48.586;13.492;2022-12-20T00:06:17;39.00;;;16.95;;
36211;SDS011;22247;48.586;13.492;2022-12-20T00:08:43;36.08;;;16.67;;
36211;SDS011;22247;48.586;13.492;2022-12-20T00:11:09;35.13;;;16.67;;
36211;SDS011;22247;48.586;13.492;2022-12-20T00:13:36;40.95;;;18.92;;
36211;SDS011;22247;48.586;13.492;2022-12-20T00:16:13;36.70;;;14.90;;
36211;SDS011;22247;48.586;13.492;2022-12-20T00:18:42;41.70;;;19.02;;
36211;SDS011;22247;48.586;13.492;2022-12-20T00:21:09;40.35;;;19.30;;
36211;SDS011;22247;48.586;13.492;2022-12-20T00:23:39;44.42;;;18.40;;
36211;SDS011;22247;48.586;13.492;2022-12-20T00:26:10;42.70;;;18.85;;
36211;SDS011;22247;48.586;13.492;2022-12-20T00:28:37;40.70;;;17.75;;
36211;SDS011;22247;48.586;13.492;2022-12-20T00:31:07;41.95;;;17.17;;
36211;SDS011;22247;48.586;13.492;2022-12-20T00:36:04;32.38;;;14.95;;
36211;SDS011;22247;48.586;13.492;2022-12-20T00:38:34;35.22;;;17.20;;
36211;SDS011;22247;48.586;13.492;2022-12-20T00:43:27;39.22;;;17.30;;
36211;SDS011;22247;48.586;13.492;2022-12-20T00:45:52;35.10;;;17.98;;
36211;SDS011;22247;48.586;13.492;2022-12-20T00:48:18;35.63;;;16.52;;
36211;SDS011;22247;48.586;13.492;2022-12-20T00:50:46;35.28;;;16.60;;
36211;SDS011;22247;48.586;13.492;2022-12-20T00:53:17;37.60;;;15.18;;
36211;SDS011;22247;48.586;13.492;2022-12-20T00:55:43;34.00;;;14.82;;
36211;SDS011;22247;48.586;13.492;2022-12-20T00:58:10;38.13;;;16.88;;
36211;SDS011;22247;48.586;13.492;2022-12-20T01:00:43;38.03;;;16.63;;
36211;SDS011;22247;48.586;13.492;2022-12-20T01:03:08;31.88;;;16.85;;
36211;SDS011;22247;48.586;13.492;2022-12-20T01:05:38;39.40;;;15.88;;
36211;SDS011;22247;48.586;13.492;2022-12-20T01:08:04;34.63;;;16.50;;
36211;SDS011;22247;48.586;13.492;2022-12-20T01:10:35;38.20;;;15.25;;
36211;SDS011;22247;48.586;13.492;2022-12-20T01:13:00;36.40;;;16.40;;
36211;SDS011;22247;48.586;13.492;2022-12-20T01:15:26;32.88;;;17.13;;
36211;SDS011;22247;48.586;13.492;2022-12-20T01:17:54;29.73;;;15.63;;
36211;SDS011;22247;48.586;13.492;2022-12-20T01:20:24;34.67;;;15.43;;
36211;SDS011;22247;48.586;13.492;2022-12-20T01:22:49;34.67;;;15.57;;
36211;SDS011;22247;48.586;13.492;2022-12-20T01:25:15;44.35;;;19.38;;
36211;SDS011;22247;48.586;13.492;2022-12-20T01:27:44;33.45;;;16.77;;
36211;SDS011;22247;48.586;13.492;2022-12-20T01:30:10;42.70;;;17.20;;
36211;SDS011;22247;48.586;13.492;2022-12-20T01:32:39;38.50;;;17.75;;
36211;SDS011;22247;48.586;13.492;2022-12-20T01:35:04;31.60;;;15.20;;
36211;SDS011;22247;48.586;13.492;2022-12-20T01:37:32;42.05;;;16.50;;
36211;SDS011;22247;48.586;13.492;2022-12-20T01:40:00;34.30;;;16.88;;
36211;SDS011;22247;48.586;13.492;2022-12-20T01:42:29;30.95;;;15.77;;
36211;SDS011;22247;48.586;13.492;2022-12-20T01:45:00;33.97;;;15.23;;
36211;SDS011;22247;48.586;13.492;2022-12-20T01:47:28;38.78;;;16.75;;
36211;SDS011;22247;48.586;13.492;2022-12-20T01:50:01;29.90;;;13.88;;
36211;SDS011;22247;48.586;13.492;2022-12-20T01:55:11;28.73;;;13.93;;
36211;SDS011;22247;48.586;13.492;2022-12-20T01:58:17;34.08;;;14.18;;
36211;SDS011;22247;48.586;13.492;2022-12-20T02:00:39;32.45;;;14.23;;
36211;SDS011;22247;48.586;13.492;2022-12-20T02:03:08;32.30;;;14.63;;
36211;SDS011;22247;48.586;13.492;2022-12-20T02:05:42;28.48;;;15.05;;
36211;SDS011;22247;48.586;13.492;2022-12-20T02:08:09;35.05;;;15.68;;
36211;SDS011;22247;48.586;13.492;2022-12-20T02:16:44;38.13;;;16.20;;
36211;SDS011;22247;48.586;13.492;2022-12-20T02:19:24;34.13;;;14.88;;
36211;SDS011;22247;48.586;13.492;2022-12-20T02:22:22;33.63;;;16.20;;
36211;SDS011;22247;48.586;13.492;2022-12-20T02:30:27;40.05;;;15.48;;
36211;SDS011;22247;48.586;13.492;2022-12-20T02:33:06;35.00;;;15.00;;
36211;SDS011;22247;48.586;13.492;2022-12-20T02:35:37;36.28;;;15.65;;
36211;SDS011;22247;48.586;13.492;2022-12-20T02:38:24;36.08;;;16.00;;
36211;SDS011;22247;48.586;13.492;2022-12-20T02:40:56;36.70;;;16.25;;
36211;SDS011;22247;48.586;13.492;2022-12-20T02:43:28;34.00;;;15.10;;
36211;SDS011;22247;48.586;13.492;2022-12-20T02:46:14;34.08;;;15.55;;
36211;SDS011;22247;48.586;13.492;2022-12-20T02:48:42;41.35;;;17.35;;
36211;SDS011;22247;48.586;13.492;2022-12-20T02:51:13;40.40;;;16.58;;
36211;SDS011;22247;48.586;13.492;2022-12-20T02:53:45;40.75;;;17.52;;
36211;SDS011;22247;48.586;13.492;2022-12-20T03:01:21;36.65;;;16.88;;
36211;SDS011;22247;48.586;13.492;2022-12-20T03:03:55;48.28;;;18.65;;
36211;SDS011;22247;48.586;13.492;2022-12-20T03:06:23;40.55;;;18.73;;
36211;SDS011;22247;48.586;13.492;2022-12-20T03:08:51;45.67;;;18.05;;
36211;SDS011;22247;48.586;13.492;2022-12-20T03:11:17;40.25;;;17.48;;
36211;SDS011;22247;48.586;13.492;2022-12-20T03:13:45;40.35;;;18.30;;
36211;SDS011;22247;48.586;13.492;2022-12-20T03:16:11;43.33;;;17.23;;
36211;SDS011;22247;48.586;13.492;2022-12-20T03:18:37;44.90;;;19.38;;
36211;SDS011;22247;48.586;13.492;2022-12-20T03:21:05;42.38;;;17.77;;
36211;SDS011;22247;48.586;13.492;2022-12-20T03:23:31;42.75;;;17.15;;
36211;SDS011;22247;48.586;13.492;2022-12-20T03:25:59;38.30;;;16.70;;
36211;SDS011;22247;48.586;13.492;2022-12-20T03:28:27;38.50;;;16.88;;
36211;SDS011;22247;48.586;13.492;2022-12-20T03:30:56;43.00;;;17.33;;
36211;SDS011;22247;48.586;13.492;2022-12-20T03:33:24;44.92;;;17.58;;
36211;SDS011;22247;48.586;13.492;2022-12-20T03:35:50;43.42;;;16.98;;
36211;SDS011;22247;48.586;13.492;2022-12-20T03:38:16;45.35;;;18.27;;
36211;SDS011;22247;48.586;13.492;2022-12-20T03:40:42;48.65;;;20.05;;
36211;SDS011;22247;48.586;13.492;2022-12-20T03:43:10;43.75;;;19.60;;
36211;SDS011;22247;48.586;13.492;2022-12-20T03:45:38;47.42;;;18.50;;
36211;SDS011;22247;48.586;13.492;2022-12-20T03:48:06;41.70;;;17.08;;
36211;SDS011;22247;48.586;13.492;2022-12-20T03:50:37;49.97;;;20.00;;
36211;SDS011;22247;48.586;13.492;2022-12-20T03:53:02;42.30;;;18.40;;
36211;SDS011;22247;48.586;13.492;2022-12-20T03:55:31;37.67;;;17.30;;
36211;SDS011;22247;48.586;13.492;2022-12-20T03:58:01;34.03;;;15.35;;
36211;SDS011;22247;48.586;13.492;2022-12-20T04:00:32;40.33;;;18.02;;
36211;SDS011;22247;48.586;13.492;2022-12-20T04:02:57;36.45;;;16.38;;
36211;SDS011;22247;48.586;13.492;2022-12-20T04:05:23;39.08;;;17.08;;
36211;SDS011;22247;48.586;13.492;2022-12-20T04:07:52;35.20;;;15.77;;
36211;SDS011;22247;48.586;13.492;2022-12-20T04:10:17;43.80;;;17.92;;
36211;SDS011;22247;48.586;13.492;2022-12-20T04:12:43;44.15;;;17.33;;
36211;SDS011;22247;48.586;13.492;2022-12-20T04:15:13;42.17;;;17.15;;
36211;SDS011;22247;48.586;13.492;2022-12-20T04:17:39;45.90;;;18.67;;
36211;SDS011;22247;48.586;13.492;2022-12-20T04:20:05;40.00;;;16.77;;
36211;SDS011;22247;48.586;13.492;2022-12-20T04:22:46;40.72;;;15.40;;
36211;SDS011;22247;48.586;13.492;2022-12-20T04:25:13;33.97;;;15.40;;
36211;SDS011;22247;48.586;13.492;2022-12-20T04:27:42;42.20;;;16.85;;
36211;SDS011;22247;48.586;13.492;2022-12-20T04:30:08;37.35;;;17.45;;
36211;SDS011;22247;48.586;13.492;2022-12-20T04:32:37;44.08;;;18.20;;
36211;SDS011;22247;48.586;13.492;2022-12-20T04:35:03;41.17;;;16.52;;
36211;SDS011;22247;48.586;13.492;2022-12-20T04:37:31;38.78;;;18.27;;
36211;SDS011;22247;48.586;13.492;2022-12-20T04:39:57;37.58;;;16.98;;
36211;SDS011;22247;48.586;13.492;2022-12-20T04:42:23;39.42;;;17.17;;
36211;SDS011;22247;48.586;13.492;2022-12-20T04:44:49;42.78;;;17.95;;
36211;SDS011;22247;48.586;13.492;2022-12-20T04:47:15;44.50;;;17.25;;
36211;SDS011;22247;48.586;13.492;2022-12-20T04:49:46;50.97;;;18.10;;
36211;SDS011;22247;48.586;13.492;2022-12-20T04:52:14;47.50;;;15.82;;
36211;SDS011;22247;48.586;13.492;2022-12-20T04:54:58;40.15;;;16.02;;
36211;SDS011;22247;48.586;13.492;2022-12-20T04:57:28;45.35;;;18.65;;
36211;SDS011;22247;48.586;13.492;2022-12-20T04:59:54;50.13;;;17.45;;
36211;SDS011;22247;48.586;13.492;2022-12-20T05:02:24;56.38;;;19.85;;
36211;SDS011;22247;48.586;13.492;2022-12-20T05:04:52;50.28;;;18.90;;
36211;SDS011;22247;48.586;13.492;2022-12-20T05:07:22;43.92;;;15.95;;
36211;SDS011;22247;48.586;13.492;2022-12-20T05:09:53;41.35;;;16.45;;
36211;SDS011;22247;48.586;13.492;2022-12-20T05:12:18;43.40;;;17.60;;
36211;SDS011;22247;48.586;13.492;2022-12-20T05:14:44;46.83;;;17.40;;
36211;SDS011;22247;48.586;13.492;2022-12-20T05:17:12;48.13;;;18.00;;
36211;SDS011;22247;48.586;13.492;2022-12-20T05:19:38;44.10;;;17.92;;
36211;SDS011;22247;48.586;13.492;2022-12-20T05:22:04;45.05;;;18.80;;
36211;SDS011;22247;48.586;13.492;2022-12-20T05:24:48;45.80;;;17.83;;
36211;SDS011;22247;48.586;13.492;2022-12-20T05:27:36;46.60;;;17.40;;
36211;SDS011;22247;48.586;13.492;2022-12-20T05:30:02;50.00;;;17.30;;
36211;SDS011;22247;48.586;13.492;2022-12-20T05:32:28;46.30;;;17.70;;
36211;SDS011;22247;48.586;13.492;2022-12-20T05:34:54;47.35;;;19.33;;
36211;SDS011;22247;48.586;13.492;2022-12-20T05:37:22;44.70;;;18.02;;
36211;SDS011;22247;48.586;13.492;2022-12-20T05:39:50;49.63;;;17.60;;
36211;SDS011;22247;48.586;13.492;2022-12-20T05:42:16;53.40;;;21.08;;
36211;SDS011;22247;48.586;13.492;2022-12-20T05:44:44;47.88;;;18.10;;
36211;SDS011;22247;48.586;13.492;2022-12-20T05:47:14;51.33;;;17.40;;
36211;SDS011;22247;48.586;13.492;2022-12-20T05:49:40;46.60;;;17.00;;
36211;SDS011;22247;48.586;13.492;2022-12-20T05:52:06;41.42;;;17.00;;
36211;SDS011;22247;48.586;13.492;2022-12-20T05:54:32;53.50;;;20.08;;
36211;SDS011;22247;48.586;13.492;2022-12-20T05:57:02;44.22;;;17.38;;
36211;SDS011;22247;48.586;13.492;2022-12-20T05:59:28;47.47;;;18.52;;
36211;SDS011;22247;48.586;13.492;2022-12-20T06:01:54;44.88;;;17.05;;
36211;SDS011;22247;48.586;13.492;2022-12-20T06:04:20;47.45;;;17.50;;
36211;SDS011;22247;48.586;13.492;2022-12-20T06:06:46;48.08;;;18.67;;
36211;SDS011;22247;48.586;13.492;2022-12-20T06:09:11;46.95;;;18.17;;
36211;SDS011;22247;48.586;13.492;2022-12-20T06:11:37;47.90;;;18.92;;
36211;SDS011;22247;48.586;13.492;2022-12-20T06:14:05;48.95;;;18.98;;
36211;SDS011;22247;48.586;13.492;2022-12-20T06:16:33;42.75;;;17.65;;
36211;SDS011;22247;48.586;13.492;2022-12-20T06:19:02;41.85;;;17.42;;
36211;SDS011;22247;48.586;13.492;2022-12-20T06:21:30;43.28;;;17.35;;
36211;SDS011;22247;48.586;13.492;2022-12-20T06:23:56;36.65;;;16.15;;
36211;SDS011;22247;48.586;13.492;2022-12-20T06:26:25;39.65;;;16.02;;
36211;SDS011;22247;48.586;13.492;2022-12-20T06:28:51;39.75;;;16.42;;
36211;SDS011;22247;48.586;13.492;2022-12-20T06:31:21;45.05;;;19.88;;
36211;SDS011;22247;48.586;13.492;2022-12-20T06:33:47;43.95;;;18.52;;
36211;SDS011;22247;48.586;13.492;2022-12-20T06:36:15;45.67;;;18.13;;
36211;SDS011;22247;48.586;13.492;2022-12-20T06:38:43;48.60;;;18.52;;
36211;SDS011;22247;48.586;13.492;2022-12-20T06:41:09;50.85;;;18.27;;
36211;SDS011;22247;48.586;13.492;2022-12-20T06:43:35;53.60;;;18.70;;
36211;SDS011;22247;48.586;13.492;2022-12-20T06:46:01;47.08;;;19.77;;
36211;SDS011;22247;48.586;13.492;2022-12-20T06:48:27;52.95;;;19.90;;
36211;SDS011;22247;48.586;13.492;2022-12-20T06:50:53;51.72;;;19.08;;
36211;SDS011;22247;48.586;13.492;2022-12-20T06:53:20;59.70;;;19.80;;
36211;SDS011;22247;48.586;13.492;2022-12-20T06:55:48;57.72;;;20.58;;
36211;SDS011;22247;48.586;13.492;2022-12-20T06:58:15;61.38;;;22.17;;
36211;SDS011;22247;48.586;13.492;2022-12-20T07:00:41;66.10;;;22.83;;
36211;SDS011;22247;48.586;13.492;2022-12-20T07:03:07;64.18;;;22.05;;
36211;SDS011;22247;48.586;13.492;2022-12-20T07:05:33;64.05;;;22.60;;
36211;SDS011;22247;48.586;13.492;2022-12-20T07:07:59;67.05;;;22.98;;
36211;SDS011;22247;48.586;13.492;2022-12-20T07:10:28;67.30;;;22.60;;
36211;SDS011;22247;48.586;13.492;2022-12-20T07:13:07;62.60;;;22.55;;
36211;SDS011;22247;48.586;13.492;2022-12-20T07:15:35;58.25;;;20.33;;
36211;SDS011;22247;48.586;13.492;2022-12-20T07:18:01;67.88;;;21.77;;
36211;SDS011;22247;48.586;13.492;2022-12-20T07:20:27;62.50;;;19.52;;
36211;SDS011;22247;48.586;13.492;2022-12-20T07:22:57;62.95;;;21.88;;
36211;SDS011;22247;48.586;13.492;2022-12-20T07:25:25;56.92;;;21.55;;
36211;SDS011;22247;48.586;13.492;2022-12-20T07:27:50;69.25;;;23.80;;
36211;SDS011;22247;48.586;13.492;2022-12-20T07:30:20;64.88;;;22.60;;
36211;SDS011;22247;48.586;13.492;2022-12-20T07:32:47;62.63;;;21.95;;
36211;SDS011;22247;48.586;13.492;2022-12-20T07:35:13;57.67;;;21.77;;
36211;SDS011;22247;48.586;13.492;2022-12-20T07:37:39;56.55;;;18.50;;
36211;SDS011;22247;48.586;13.492;2022-12-20T07:40:06;56.78;;;21.60;;
36211;SDS011;22247;48.586;13.492;2022-12-20T07:42:33;58.40;;;20.42;;
36211;SDS011;22247;48.586;13.492;2022-12-20T07:45:01;62.35;;;22.85;;
36211;SDS011;22247;48.586;13.492;2022-12-20T07:47:34;54.92;;;21.80;;
36211;SDS011;22247;48.586;13.492;2022-12-20T07:50:00;53.72;;;21.98;;
36211;SDS011;22247;48.586;13.492;2022-12-20T07:52:28;51.75;;;19.40;;
36211;SDS011;22247;48.586;13.492;2022-12-20T07:54:58;60.35;;;20.98;;
36211;SDS011;22247;48.586;13.492;2022-12-20T07:57:36;63.30;;;22.63;;
36211;SDS011;22247;48.586;13.492;2022-12-20T08:00:06;62.08;;;22.40;;
36211;SDS011;22247;48.586;13.492;2022-12-20T08:02:34;60.88;;;20.77;;
36211;SDS011;22247;48.586;13.492;2022-12-20T08:05:06;58.83;;;22.02;;
36211;SDS011;22247;48.586;13.492;2022-12-20T08:07:33;56.63;;;21.58;;
36211;SDS011;22247;48.586;13.492;2022-12-20T08:10:03;49.03;;;19.65;;
36211;SDS011;22247;48.586;13.492;2022-12-20T08:12:30;57.95;;;20.88;;
36211;SDS011;22247;48.586;13.492;2022-12-20T08:15:00;61.97;;;22.10;;
36211;SDS011;22247;48.586;13.492;2022-12-20T08:17:29;49.67;;;20.25;;
36211;SDS011;22247;48.586;13.492;2022-12-20T08:19:56;51.80;;;18.77;;
36211;SDS011;22247;48.586;13.492;2022-12-20T08:22:24;49.47;;;18.65;;
36211;SDS011;22247;48.586;13.492;2022-12-20T08:24:52;59.92;;;21.38;;
36211;SDS011;22247;48.586;13.492;2022-12-20T08:27:18;46.70;;;19.30;;
36211;SDS011;22247;48.586;13.492;2022-12-20T08:29:46;51.35;;;20.38;;
36211;SDS011;22247;48.586;13.492;2022-12-20T08:32:14;50.72;;;20.25;;
36211;SDS011;22247;48.586;13.492;2022-12-20T08:34:40;53.85;;;19.95;;
36211;SDS011;22247;48.586;13.492;2022-12-20T08:37:06;52.75;;;20.75;;
36211;SDS011;22247;48.586;13.492;2022-12-20T08:39:32;50.60;;;19.50;;
36211;SDS011;22247;48.586;13.492;2022-12-20T08:41:58;58.95;;;20.13;;
36211;SDS011;22247;48.586;13.492;2022-12-20T08:44:24;50.88;;;18.13;;
36211;SDS011;22247;48.586;13.492;2022-12-20T08:46:50;52.45;;;18.60;;
36211;SDS011;22247;48.586;13.492;2022-12-20T08:49:18;53.55;;;20.88;;
36211;SDS011;22247;48.586;13.492;2022-12-20T08:51:43;54.42;;;19.25;;
36211;SDS011;22247;48.586;13.492;2022-12-20T08:54:14;45.88;;;17.85;;
36211;SDS011;22247;48.586;13.492;2022-12-20T08:56:42;50.83;;;18.63;;
36211;SDS011;22247;48.586;13.492;2022-12-20T08:59:12;49.95;;;18.20;;
36211;SDS011;22247;48.586;13.492;2022-12-20T09:01:40;45.45;;;18.02;;
36211;SDS011;22247;48.586;13.492;2022-12-20T09:04:05;56.58;;;20.55;;
36211;SDS011;22247;48.586;13.492;2022-12-20T09:06:33;51.92;;;19.95;;
36211;SDS011;22247;48.586;13.492;2022-12-20T09:08:59;47.78;;;18.67;;
36211;SDS011;22247;48.586;13.492;2022-12-20T09:11:27;45.67;;;18.15;;
36211;SDS011;22247;48.586;13.492;2022-12-20T09:13:56;49.78;;;19.63;;
36211;SDS011;22247;48.586;13.492;2022-12-20T09:16:26;49.97;;;17.57;;
36211;SDS011;22247;48.586;13.492;2022-12-20T09:18:54;53.03;;;19.35;;
36211;SDS011;22247;48.586;13.492;2022-12-20T09:21:21;47.95;;;17.88;;
36211;SDS011;22247;48.586;13.492;2022-12-20T09:23:49;50.17;;;18.05;;
36211;SDS011;22247;48.586;13.492;2022-12-20T09:26:18;48.78;;;18.88;;
36211;SDS011;22247;48.586;13.492;2022-12-20T09:28:49;51.97;;;20.60;;
36211;SDS011;22247;48.586;13.492;2022-12-20T09:31:21;51.42;;;17.48;;
36211;SDS011;22247;48.586;13.492;2022-12-20T09:33:52;53.10;;;20.55;;
36211;SDS011;22247;48.586;13.492;2022-12-20T09:36:22;55.08;;;20.13;;
36211;SDS011;22247;48.586;13.492;2022-12-20T09:38:53;58.67;;;21.15;;
36211;SDS011;22247;48.586;13.492;2022-12-20T09:41:37;50.60;;;17.00;;
36211;SDS011;22247;48.586;13.492;2022-12-20T09:44:14;52.72;;;17.75;;
36211;SDS011;22247;48.586;13.492;2022-12-20T09:46:56;54.83;;;19.38;;
36211;SDS011;22247;48.586;13.492;2022-12-20T09:49:28;56.83;;;19.73;;
36211;SDS011;22247;48.586;13.492;2022-12-20T09:52:06;48.65;;;18.98;;
36211;SDS011;22247;48.586;13.492;2022-12-20T10:00:17;47.92;;;18.40;;
36211;SDS011;22247;48.586;13.492;2022-12-20T10:02:46;54.45;;;19.77;;
36211;SDS011;22247;48.586;13.492;2022-12-20T10:05:35;44.28;;;18.27;;
36211;SDS011;22247;48.586;13.492;2022-12-20T10:11:06;47.55;;;17.88;;
36211;SDS011;22247;48.586;13.492;2022-12-20T10:16:12;45.53;;;17.10;;
36211;SDS011;22247;48.586;13.492;2022-12-20T10:24:29;49.35;;;17.55;;
36211;SDS011;22247;48.586;13.492;2022-12-20T10:27:13;49.67;;;19.10;;
36211;SDS011;22247;48.586;13.492;2022-12-20T10:29:41;50.65;;;18.48;;
36211;SDS011;22247;48.586;13.492;2022-12-20T10:32:12;48.13;;;20.08;;
36211;SDS011;22247;48.586;13.492;2022-12-20T10:34:45;54.28;;;19.05;;
36211;SDS011;22247;48.586;13.492;2022-12-20T10:37:17;49.63;;;18.40;;
36211;SDS011;22247;48.586;13.492;2022-12-20T10:39:46;46.33;;;18.98;;
36211;SDS011;22247;48.586;13.492;2022-12-20T10:42:25;47.38;;;19.15;;
36211;SDS011;22247;48.586;13.492;2022-12-20T10:45:27;43.97;;;17.27;;
36211;SDS011;22247;48.586;13.492;2022-12-20T10:50:26;48.67;;;19.25;;
36211;SDS011;22247;48.586;13.492;2022-12-20T10:55:38;43.15;;;17.00;;
36211;SDS011;22247;48.586;13.492;2022-12-20T10:58:14;49.05;;;17.85;;
36211;SDS011;22247;48.586;13.492;2022-12-20T11:00:42;52.13;;;21.10;;
36211;SDS011;22247;48.586;13.492;2022-12-20T11:03:18;48.00;;;18.40;;
36211;SDS011;22247;48.586;13.492;2022-12-20T11:05:56;43.83;;;18.38;;
36211;SDS011;22247;48.586;13.492;2022-12-20T11:08:27;47.88;;;19.90;;
36211;SDS011;22247;48.586;13.492;2022-12-20T11:13:37;50.85;;;18.20;;
36211;SDS011;22247;48.586;13.492;2022-12-20T11:16:03;38.85;;;16.45;;
36211;SDS011;22247;48.586;13.492;2022-12-20T11:34:25;35.78;;;14.32;;
36211;SDS011;22247;48.586;13.492;2022-12-20T11:37:16;38.53;;;14.77;;
36211;SDS011;22247;48.586;13.492;2022-12-20T11:50:57;45.88;;;15.32;;
36211;SDS011;22247;48.586;13.492;2022-12-20T11:55:57;37.40;;;15.40;;
36211;SDS011;22247;48.586;13.492;2022-12-20T11:58:42;37.70;;;14.82;;
36211;SDS011;22247;48.586;13.492;2022-12-20T12:01:25;41.70;;;15.55;;
36211;SDS011;22247;48.586;13.492;2022-12-20T12:09:29;40.47;;;14.48;;
36211;SDS011;22247;48.586;13.492;2022-12-20T12:13:01;42.17;;;15.48;;
36211;SDS011;22247;48.586;13.492;2022-12-20T12:17:43;39.65;;;16.52;;
36211;SDS011;22247;48.586;13.492;2022-12-20T12:23:11;37.15;;;15.07;;
36211;SDS011;22247;48.586;13.492;2022-12-20T12:25:48;36.83;;;15.18;;
36211;SDS011;22247;48.586;13.492;2022-12-20T12:28:14;43.30;;;17.52;;
36211;SDS011;22247;48.586;13.492;2022-12-20T12:30:47;41.45;;;15.23;;
36211;SDS011;22247;48.586;13.492;2022-12-20T12:33:23;41.63;;;16.85;;
36211;SDS011;22247;48.586;13.492;2022-12-20T12:44:06;43.83;;;16.10;;
36211;SDS011;22247;48.586;13.492;2022-12-20T12:46:44;39.13;;;16.23;;
36211;SDS011;22247;48.586;13.492;2022-12-20T12:49:16;41.25;;;16.88;;
36211;SDS011;22247;48.586;13.492;2022-12-20T12:51:50;40.35;;;16.73;;
36211;SDS011;22247;48.586;13.492;2022-12-20T12:54:21;39.90;;;15.45;;
36211;SDS011;22247;48.586;13.492;2022-12-20T12:57:11;44.23;;;16.77;;
36211;SDS011;22247;48.586;13.492;2022-12-20T12:59:46;45.22;;;18.00;;
36211;SDS011;22247;48.586;13.492;2022-12-20T13:05:24;42.17;;;15.32;;
36211;SDS011;22247;48.586;13.492;2022-12-20T13:07:45;37.97;;;14.95;;
36211;SDS011;22247;48.586;13.492;2022-12-20T13:20:26;41.53;;;16.77;;
36211;SDS011;22247;48.586;13.492;2022-12-20T13:33:22;43.60;;;16.52;;
36211;SDS011;22247;48.586;13.492;2022-12-20T13:43:53;36.90;;;15.25;;
36211;SDS011;22247;48.586;13.492;2022-12-20T13:46:42;41.13;;;15.55;;
36211;SDS011;22247;48.586;13.492;2022-12-20T13:54:43;36.53;;;15.20;;
36211;SDS011;22247;48.586;13.492;2022-12-20T13:57:14;38.67;;;15.60;;
36211;SDS011;22247;48.586;13.492;2022-12-20T13:59:44;42.90;;;15.80;;
36211;SDS011;22247;48.586;13.492;2022-12-20T14:02:20;47.78;;;16.30;;
36211;SDS011;22247;48.586;13.492;2022-12-20T14:04:54;46.65;;;18.75;;
36211;SDS011;22247;48.586;13.492;2022-12-20T14:07:27;46.38;;;19.33;;
36211;SDS011;22247;48.586;13.492;2022-12-20T14:09:59;58.85;;;20.75;;
36211;SDS011;22247;48.586;13.492;2022-12-20T14:12:26;56.92;;;21.85;;
36211;SDS011;22247;48.586;13.492;2022-12-20T14:14:55;53.15;;;21.85;;
36211;SDS011;22247;48.586;13.492;2022-12-20T14:17:28;68.05;;;25.20;;
36211;SDS011;22247;48.586;13.492;2022-12-20T14:22:40;50.67;;;21.60;;
36211;SDS011;22247;48.586;13.492;2022-12-20T14:25:10;57.60;;;21.73;;
36211;SDS011;22247;48.586;13.492;2022-12-20T14:27:45;62.35;;;22.17;;
36211;SDS011;22247;48.586;13.492;2022-12-20T14:30:31;56.22;;;22.90;;
36211;SDS011;22247;48.586;13.492;2022-12-20T14:33:01;56.50;;;23.33;;
36211;SDS011;22247;48.586;13.492;2022-12-20T14:35:27;58.38;;;20.33;;
36211;SDS011;22247;48.586;13.492;2022-12-20T14:37:56;59.03;;;20.23;;
36211;SDS011;22247;48.586;13.492;2022-12-20T14:40:24;58.55;;;21.58;;
36211;SDS011;22247;48.586;13.492;2022-12-20T14:42:53;59.97;;;21.48;;
36211;SDS011;22247;48.586;13.492;2022-12-20T14:45:25;59.60;;;24.02;;
36211;SDS011;22247;48.586;13.492;2022-12-20T14:47:56;52.28;;;21.42;;
36211;SDS011;22247;48.586;13.492;2022-12-20T14:50:39;62.22;;;22.40;;
36211;SDS011;22247;48.586;13.492;2022-12-20T14:53:19;56.20;;;20.40;;
36211;SDS011;22247;48.586;13.492;2022-12-20T14:55:49;57.38;;;21.20;;
36211;SDS011;22247;48.586;13.492;2022-12-20T14:58:23;56.10;;;22.05;;
36211;SDS011;22247;48.586;13.492;2022-12-20T15:03:23;55.75;;;20.98;;
36211;SDS011;22247;48.586;13.492;2022-12-20T15:05:53;53.67;;;19.80;;
36211;SDS011;22247;48.586;13.492;2022-12-20T15:08:25;67.75;;;23.17;;
36211;SDS011;22247;48.586;13.492;2022-12-20T15:11:39;58.22;;;21.02;;
36211;SDS011;22247;48.586;13.492;2022-12-20T15:13:46;55.38;;;20.50;;
36211;SDS011;22247;48.586;13.492;2022-12-20T15:18:45;44.60;;;17.20;;
36211;SDS011;22247;48.586;13.492;2022-12-20T15:21:23;47.92;;;18.58;;
36211;SDS011;22247;48.586;13.492;2022-12-20T15:23:57;46.38;;;16.60;;
36211;SDS011;22247;48.586;13.492;2022-12-20T15:26:29;45.30;;;17.13;;
36211;SDS011;22247;48.586;13.492;2022-12-20T15:28:59;48.97;;;18.45;;
36211;SDS011;22247;48.586;13.492;2022-12-20T15:31:25;42.53;;;17.02;;
36211;SDS011;22247;48.586;13.492;2022-12-20T15:33:52;49.03;;;18.17;;
36211;SDS011;22247;48.586;13.492;2022-12-20T15:36:22;44.97;;;17.55;;
36211;SDS011;22247;48.586;13.492;2022-12-20T15:38:50;53.55;;;19.73;;
36211;SDS011;22247;48.586;13.492;2022-12-20T15:44:04;60.63;;;20.65;;
36211;SDS011;22247;48.586;13.492;2022-12-20T15:46:36;55.88;;;21.77;;
36211;SDS011;22247;48.586;13.492;2022-12-20T15:49:02;56.17;;;19.75;;
36211;SDS011;22247;48.586;13.492;2022-12-20T15:51:33;55.45;;;19.52;;
36211;SDS011;22247;48.586;13.492;2022-12-20T15:54:09;51.20;;;18.42;;
36211;SDS011;22247;48.586;13.492;2022-12-20T15:56:42;48.47;;;17.08;;
36211;SDS011;22247;48.586;13.492;2022-12-20T15:59:10;46.75;;;17.90;;
36211;SDS011;22247;48.586;13.492;2022-12-20T16:01:36;48.03;;;19.08;;
36211;SDS011;22247;48.586;13.492;2022-12-20T16:04:03;48.08;;;18.15;;
36211;SDS011;22247;48.586;13.492;2022-12-20T16:06:30;43.95;;;17.00;;
36211;SDS011;22247;48.586;13.492;2022-12-20T16:08:56;42.80;;;14.30;;
36211;SDS011;22247;48.586;13.492;2022-12-20T16:11:24;69.50;;;24.13;;
36211;SDS011;22247;48.586;13.492;2022-12-20T16:13:54;50.10;;;19.38;;
36211;SDS011;22247;48.586;13.492;2022-12-20T16:16:22;45.83;;;15.98;;
36211;SDS011;22247;48.586;13.492;2022-12-20T16:18:50;43.90;;;16.75;;
36211;SDS011;22247;48.586;13.492;2022-12-20T16:21:22;40.35;;;16.48;;
36211;SDS011;22247;48.586;13.492;2022-12-20T16:23:52;42.70;;;15.88;;
36211;SDS011;22247;48.586;13.492;2022-12-20T16:26:21;43.97;;;16.60;;
36211;SDS011;22247;48.586;13.492;2022-12-20T16:28:51;44.13;;;15.68;;
36211;SDS011;22247;48.586;13.492;2022-12-20T16:31:24;50.75;;;16.38;;
36211;SDS011;22247;48.586;13.492;2022-12-20T16:34:04;46.55;;;15.88;;
36211;SDS011;22247;48.586;13.492;2022-12-20T16:36:38;44.67;;;17.92;;
36211;SDS011;22247;48.586;13.492;2022-12-20T16:39:04;42.05;;;15.85;;
36211;SDS011;22247;48.586;13.492;2022-12-20T16:41:34;37.03;;;13.43;;
36211;SDS011;22247;48.586;13.492;2022-12-20T16:44:03;44.28;;;15.20;;
36211;SDS011;22247;48.586;13.492;2022-12-20T16:46:32;35.85;;;14.82;;
36211;SDS011;22247;48.586;13.492;2022-12-20T16:49:02;41.33;;;15.05;;
36211;SDS011;22247;48.586;13.492;2022-12-20T16:54:15;43.35;;;16.10;;